createdAt,value
2022-11-28T20:11:14.084Z,21.45
2022-11-28T20:14:10.205Z,23.90
2022-11-28T20:16:55.618Z,18.90
2022-11-28T20:19:42.078Z,16.35
2022-11-28T20:40:51.171Z,27.20
2022-11-28T20:43:38.405Z,24.60
2022-11-28T20:46:30.463Z,25.52
2022-11-28T20:49:16.296Z,27.08
2022-11-28T20:52:01.674Z,26.42
2022-11-28T20:54:47.096Z,24.23
2022-11-28T20:57:32.606Z,25.77
2022-11-28T21:00:21.232Z,27.60
2022-11-28T21:03:10.734Z,26.40
2022-11-28T21:06:00.891Z,23.08
2022-11-28T21:08:47.134Z,25.08
2022-11-28T21:11:55.729Z,26.05
2022-11-28T21:14:37.701Z,23.55
2022-11-28T21:17:23.171Z,20.45
2022-11-28T21:20:09.413Z,19.33
2022-11-28T21:22:55.679Z,17.70
2022-11-28T21:25:42.432Z,20.50
2022-11-28T21:28:27.799Z,23.15
2022-11-28T21:31:25.803Z,26.25
2022-11-28T21:34:14.481Z,23.27
2022-11-28T21:37:00.257Z,25.25
2022-11-28T21:39:46.239Z,20.63
2022-11-28T21:42:32.377Z,21.70
2022-11-28T21:45:18.570Z,23.80
2022-11-28T21:48:04.247Z,27.30
2022-11-28T21:50:51.356Z,26.73
2022-11-28T21:53:36.762Z,22.40
2022-11-28T21:56:22.320Z,22.05
2022-11-28T21:59:08.152Z,23.38
2022-11-28T22:01:54.234Z,16.20
2022-11-28T22:04:40.193Z,18.40
2022-11-28T22:07:25.959Z,17.88
2022-11-28T22:10:11.340Z,17.52
2022-11-28T22:12:57.987Z,18.25
2022-11-28T22:15:43.803Z,15.88
2022-11-28T22:18:30.094Z,15.63
2022-11-28T22:24:22.972Z,15.88
2022-11-28T22:27:08.546Z,14.00
2022-11-28T22:29:53.837Z,14.55
2022-11-28T22:32:39.286Z,15.15
2022-11-28T22:35:25.397Z,14.45
2022-11-28T22:38:12.666Z,14.73
2022-11-28T22:40:58.477Z,16.60
2022-11-28T22:43:46.092Z,16.38
2022-11-28T22:46:33.157Z,17.08
2022-11-28T22:49:19.074Z,18.88
2022-11-28T22:52:06.097Z,19.80
2022-11-28T22:54:51.648Z,18.85
2022-11-28T22:57:37.688Z,20.80
2022-11-28T23:00:23.061Z,19.23
2022-11-28T23:03:08.723Z,19.60
2022-11-28T23:05:54.481Z,19.48
2022-11-28T23:08:41.117Z,18.33
2022-11-28T23:11:29.571Z,19.73
2022-11-28T23:14:17.488Z,17.55
2022-11-28T23:17:02.989Z,17.58
2022-11-28T23:19:49.823Z,16.15
2022-11-28T23:22:35.824Z,15.13
2022-11-28T23:25:21.346Z,14.55
2022-11-28T23:28:07.435Z,13.98
2022-11-28T23:30:53.185Z,14.48
2022-11-28T23:33:39.451Z,13.77
2022-11-28T23:36:37.030Z,15.25
2022-11-28T23:39:26.929Z,13.77
2022-11-28T23:42:21.814Z,15.13
2022-11-28T23:45:08.003Z,13.40
2022-11-28T23:47:53.177Z,13.70
2022-11-28T23:50:38.366Z,12.50
2022-11-28T23:53:23.651Z,11.95
2022-11-28T23:56:12.834Z,11.80
2022-11-28T23:59:01.696Z,11.82
